Terminal Aerodrome Forecast
Issued by NWS Cleveland, OH

Home | Current Version | Previous Version | Graphics & Text | Print | Product List | Glossary Off
Versions: 1 2 3 4 5 6 7 8 9 10 11 12 13 14

000
FTUS41 KCLE 231700
TAFYNG
TAF
KYNG 231722Z 2318/2418 22006KT P6SM FEW250
     FM240100 16004KT P6SM SCT250
     FM241500 21006KT P6SM FEW120 BKN250=

USA.gov is the U.S. government's official web portal to all federal, state and local government web resources and services.